• Join FlightAware (Why Join?)
  • Login
  • US Flag 
02:14PM EDT


 

Airport Tracker/Info


-or-


 

Live Flight TrackerFlight Track Log ✈ ASQ5941 ✈ 16-Jul-2013 ✈ KORD - KAVP

Flight Track Log - Related Links

Times and Time Zones

All times are in EDT time to prevent confusion due to time zone crossing. See the ASQ5941 flight status page for this flight to view local times or setup timezone preferences in your user account.

Time Position Orientation Groundspeed Altitude Reporting Facility
EDT Latitude Longitude Course Direction KTS MPH feet Rate Location/Type
02:57PM 42.0000 -87.9500 77° East 180 207 1,700  Level Chicago TRACON
02:58PM 42.0667 -87.9167 20° North 242 278 3,800 1,980 Climbing Chicago TRACON
03:00PM 42.1372 -87.8422 38° Northeast 254 292 7,000 1,800 Climbing Chicago Center
03:01PM 42.1628 -87.7411 71° East 275 316 8,500 1,560 Climbing Chicago Center
03:02PM 42.1575 -87.6347 94° East 287 330 10,300 1,620 Climbing Chicago Center
03:03PM 42.0979 -87.0628 77° East  Level FlightAware Approximate
03:03PM 42.1486 -87.5181 96° East 307 353 11,900  Level Chicago Center
03:04PM 42.1394 -87.3986 96° East 322 371 12,600 660 Climbing Chicago Center
03:05PM 42.1286 -87.2689 96° East 346 398 13,300 900 Climbing Chicago Center
03:06PM 42.1236 -87.1314 93° East 365 420 14,500 1,500 Climbing Chicago Center
03:07PM 42.1306 -86.9733 87° East 355 409 16,500 1,500 Climbing Chicago Center
03:08PM 42.1361 -86.8433 87° East 351 404 17,600 780 Climbing Chicago Center
03:09PM 42.1425 -86.7103 86° East 357 411 18,200 780 Climbing Chicago Center
03:10PM 42.1472 -86.5753 87° East 367 422 19,300 1,020 Climbing Chicago Center
03:11PM 42.1528 -86.4386 87° East 367 422 20,400 1,140 Climbing Chicago Center
03:12PM 42.1592 -86.2692 87° East 376 433 21,700 1,080 Climbing Chicago Center
03:13PM 42.1653 -86.1269 87° East 379 436 22,700 960 Climbing Chicago Center
03:14PM 42.1692 -85.9853 88° East 379 436 23,800 960 Climbing Chicago Center
03:15PM 42.1731 -85.8556 88° East 379 436 24,800 1,020 Climbing Chicago Center
03:16PM 42.1797 -85.6872 87° East 377 434 26,000 1,080 Climbing Chicago Center
03:17PM 42.1906 -85.5478 84° East 379 436 27,100 960 Climbing Chicago Center
03:18PM 42.2206 -85.4122 73° East 379 436 28,100 960 Climbing Chicago Center
03:19PM 42.2469 -85.2778 75° East 375 432 29,200 960 Climbing Chicago Center
03:20PM 42.2753 -85.1394 74° East 383 441 30,200 960 Climbing Chicago Center
03:22PM 42.3250 -84.9003 74° East 371 427 31,800 900 Climbing Cleveland Center
03:23PM 42.3508 -84.7614 76° East 376 433 32,600 780 Climbing Cleveland Center
03:24PM 42.3586 -84.6992 80° East 383 441 33,000 240 Climbing Chicago Center
03:25PM 42.3850 -84.5558 76° East 391 450 33,000  Level Chicago Center
03:26PM 42.4142 -84.4022 76° East 414 476 33,100 600 Climbing Chicago Center
03:27PM 42.4494 -84.2178 75° East 422 486 34,300 900 Climbing Chicago Center
03:28PM 42.4794 -84.0678 75° East 417 480 35,000 300 Climbing Chicago Center
03:29PM 42.5083 -83.9125 76° East 423 487 35,000  Level Chicago Center
03:30PM 42.5369 -83.6886 80° East 426 490 35,000  Level Cleveland Center
03:31PM 42.5497 -83.5200 84° East 439 505 35,000  Level Cleveland Center
03:32PM 42.5561 -83.3569 87° East 439 505 35,000  Level Cleveland Center
03:33PM 42.5536 -83.1933 91° East 439 505 35,000  Level Cleveland Center
03:34PM 42.5508 -83.0325 91° East 434 499 35,000  Level Cleveland Center
03:35PM 42.5353 -82.8711 97° East 429 494 35,000  Level Cleveland Center
03:36PM 42.5156 -82.7100 99° East 429 494 35,000  Level Cleveland Center
03:37PM 42.4975 -82.5517 99° East 429 494 35,000  Level Cleveland Center
03:38PM 42.4794 -82.3906 99° East 429 494 35,000  Level Cleveland Center
03:39PM 42.4608 -82.2325 99° East 429 494 35,000  Level Cleveland Center
03:40PM 42.4442 -82.0856 99° East 429 494 35,000  Level Cleveland Center
03:41PM 42.4253 -81.9219 99° East 429 494 35,000  Level Cleveland Center
03:42PM 42.4042 -81.7586 100° East 436 502 35,000  Level Cleveland Center
03:43PM 42.3850 -81.5811 98° East 436 502 35,000  Level Cleveland Center
03:44PM 42.3633 -81.4122 100° East 436 502 35,000  Level Cleveland Center
03:45PM 42.3436 -81.2517 99° East 436 502 35,000  Level Cleveland Center
03:46PM 42.3217 -81.0858 100° East 442 509 35,000  Level Cleveland Center
03:47PM 42.3014 -80.9228 99° East 447 514 35,000  Level Cleveland Center
03:48PM 42.2808 -80.7544 99° East 447 514 35,000  Level Cleveland Center
03:49PM 42.2581 -80.5889 100° East 447 514 35,000  Level Cleveland Center
03:50PM 42.2369 -80.4233 100° East 447 514 35,000  Level Cleveland Center
03:51PM 42.2158 -80.2747 101° East 447 514 35,000  Level Cleveland Center
03:52PM 42.1944 -80.1094 100° East 447 514 35,000  Level Cleveland Center
03:53PM 42.1708 -79.9247 100° East 452 520 35,000  Level Cleveland Center
03:54PM 42.1467 -79.7569 101° East 452 520 35,000  Level Cleveland Center
03:55PM 42.1225 -79.5922 101° East 447 514 35,000  Level Cleveland Center
03:56PM 42.1000 -79.4247 100° East 447 514 35,000 -300 Level Cleveland Center
03:57PM 42.0753 -79.2572 101° East 453 521 34,500 -780 Descending Cleveland Center
03:58PM 42.0503 -79.0928 102° East 453 521 33,500 -1,020 Descending Cleveland Center
03:59PM 42.0294 -78.9256 99° East 448 516 32,500 -840 Descending Cleveland Center
04:00PM 42.0039 -78.7642 102° East 448 516 31,900 -720 Descending Cleveland Center
04:01PM 41.9806 -78.6000 101° East 448 516 31,100 -960 Descending Cleveland Center
04:02PM 41.9544 -78.4333 102° East 448 516 30,000 -1,320 Descending Cleveland Center
04:03PM 41.9283 -78.2611 101° East 453 521 28,500 -1,500 Descending Cleveland Center
04:04PM 41.9017 -78.0944 102° East 453 521 27,100 -1,440 Descending Cleveland Center
04:05PM 41.8733 -77.9103 102° East 450 518 25,400 -1,620 Descending New York Center
04:06PM 41.8228 -77.7461 112° Southeast 465 535 23,700 -1,200 Descending New York Center
04:07PM 41.7644 -77.6008 118° Southeast 459 528 23,000 -600 Descending New York Center
04:08PM 41.7100 -77.4592 117° Southeast 448 516 22,600 -1,320 Descending New York Center
04:09PM 41.6839 -77.2928 102° East 433 498 20,500 -2,040 Descending New York Center
04:10PM 41.6672 -77.1411 98° East 433 498 18,600 -1,560 Descending New York Center
04:11PM 41.6503 -76.9894 98° East 415 478 17,400 -1,200 Descending New York Center
04:12PM 41.6331 -76.8353 98° East 415 478 16,300 -1,200 Descending New York Center
04:13PM 41.6136 -76.6836 100° East 415 478 15,100 -1,140 Descending New York Center
04:14PM 41.5981 -76.5381 98° East 410 472 14,000 -1,260 Descending New York Center
04:15PM 41.5833 -76.4092 99° East 397 457 12,600 -1,620 Descending New York Center
04:16PM 41.5689 -76.2719 98° East 383 441 10,900 -1,500 Descending New York Center
04:17PM 41.5478 -76.1400 102° East 341 392 9,700 -1,320 Descending New York Center
04:18PM 41.5061 -76.0508 122° Southeast 300 345 8,300 -1,440 Descending New York Center
04:19PM 41.4444 -75.9822 140° Southeast 280 322 6,800 -1,560 Descending New York Center
04:20PM 41.3928 -75.9258 141° Southeast 280 322 5,300 -1,560 Descending New York Center